createdAt,value
2022-11-24T00:00:28.882Z,295.20
2022-11-24T00:01:29.066Z,293.60
2022-11-24T00:02:28.950Z,285.80
2022-11-24T00:03:28.887Z,316.70
2022-11-24T00:04:28.837Z,299.90
2022-11-24T00:05:28.882Z,358.80
2022-11-24T00:06:28.807Z,353.80
2022-11-24T00:07:28.820Z,331.00
2022-11-24T00:08:28.738Z,474.30
2022-11-24T00:09:28.770Z,351.90
2022-11-24T00:10:28.747Z,341.50
2022-11-24T00:11:28.778Z,341.00
2022-11-24T00:12:28.699Z,322.40
2022-11-24T00:13:28.716Z,355.00
2022-11-24T00:14:28.688Z,331.90
2022-11-24T00:15:28.692Z,374.00
2022-11-24T00:16:28.707Z,286.90
2022-11-24T00:17:28.658Z,293.30
2022-11-24T00:18:28.642Z,419.10
2022-11-24T00:19:28.660Z,369.40
2022-11-24T00:20:28.624Z,320.90
2022-11-24T00:21:28.588Z,449.20
2022-11-24T00:22:28.656Z,438.80
2022-11-24T00:23:28.590Z,528.90
2022-11-24T00:24:28.573Z,345.70
2022-11-24T00:25:28.574Z,361.70
2022-11-24T00:26:28.623Z,366.30
2022-11-24T00:27:28.522Z,343.00
2022-11-24T00:28:28.533Z,399.90
2022-11-24T00:29:28.511Z,365.20
2022-11-24T00:30:28.593Z,476.50
2022-11-24T00:31:28.585Z,492.40
2022-11-24T00:32:28.476Z,436.00
2022-11-24T00:33:28.485Z,456.00
2022-11-24T00:34:28.441Z,430.50
2022-11-24T00:35:28.410Z,496.50
2022-11-24T00:36:28.395Z,419.80
2022-11-24T00:37:28.405Z,436.40
2022-11-24T00:38:28.380Z,408.90
2022-11-24T00:39:28.390Z,413.30
2022-11-24T00:40:33.592Z,493.10
2022-11-24T00:41:28.349Z,399.30
2022-11-24T00:42:28.448Z,594.00
2022-11-24T00:43:28.328Z,403.80
2022-11-24T00:44:28.291Z,478.30
2022-11-24T00:45:28.317Z,468.40
2022-11-24T00:46:28.449Z,499.40
2022-11-24T00:47:28.297Z,491.90
2022-11-24T00:48:28.276Z,534.30
2022-11-24T00:49:28.264Z,553.60
2022-11-24T00:50:28.208Z,644.80
2022-11-24T00:51:28.242Z,549.90
2022-11-24T00:52:28.226Z,713.10
2022-11-24T00:53:28.240Z,592.40
2022-11-24T00:54:28.202Z,526.70
2022-11-24T00:55:28.197Z,614.20
2022-11-24T00:56:28.162Z,489.80
2022-11-24T00:57:28.160Z,543.90
2022-11-24T00:58:28.127Z,476.90
2022-11-24T00:59:28.137Z,471.50
2022-11-24T01:00:28.118Z,482.40
2022-11-24T01:01:28.152Z,579.80
2022-11-24T01:02:28.118Z,506.80
2022-11-24T01:03:28.138Z,465.80
2022-11-24T01:04:28.044Z,429.50
2022-11-24T01:05:28.066Z,459.40
2022-11-24T01:06:28.016Z,525.00
2022-11-24T01:07:28.077Z,536.90
2022-11-24T01:08:28.040Z,458.40
2022-11-24T01:09:27.988Z,544.90
2022-11-24T01:10:27.995Z,511.00
2022-11-24T01:11:27.980Z,517.50
2022-11-24T01:12:27.945Z,453.00
2022-11-24T01:13:27.942Z,524.10
2022-11-24T01:14:27.936Z,484.20
2022-11-24T01:15:27.948Z,492.20
2022-11-24T01:16:27.955Z,591.30
2022-11-24T01:17:27.875Z,518.10
2022-11-24T01:18:27.879Z,673.80
2022-11-24T01:19:27.874Z,587.50
2022-11-24T01:20:27.905Z,609.40
2022-11-24T01:21:27.848Z,613.20
2022-11-24T01:22:27.860Z,551.60
2022-11-24T01:23:27.828Z,646.90
2022-11-24T01:24:27.781Z,595.90
2022-11-24T01:25:27.862Z,677.90
2022-11-24T01:26:27.776Z,653.00
2022-11-24T01:27:27.765Z,536.40
2022-11-24T01:28:27.794Z,545.40
2022-11-24T01:29:27.763Z,609.40
2022-11-24T01:30:27.732Z,674.70
2022-11-24T01:31:27.784Z,694.50
2022-11-24T01:32:27.684Z,722.20
2022-11-24T01:33:27.712Z,611.50
2022-11-24T01:34:27.686Z,609.20
2022-11-24T01:35:27.676Z,564.40
2022-11-24T01:36:27.654Z,557.60
2022-11-24T01:37:27.726Z,575.40
2022-11-24T01:38:27.628Z,538.10
2022-11-24T01:39:27.666Z,628.30
2022-11-24T01:40:27.593Z,607.00
2022-11-24T01:41:27.616Z,553.50
2022-11-24T01:42:27.585Z,458.90
2022-11-24T01:43:27.578Z,459.10
2022-11-24T01:44:27.571Z,465.30
2022-11-24T01:45:27.561Z,423.70
2022-11-24T01:46:27.571Z,431.60
2022-11-24T01:47:27.612Z,428.80
2022-11-24T01:48:28.358Z,432.90
2022-11-24T01:49:27.507Z,494.70
2022-11-24T01:50:27.547Z,405.00
2022-11-24T01:51:27.474Z,366.20
2022-11-24T01:52:27.856Z,404.10
2022-11-24T01:53:27.441Z,457.80
2022-11-24T01:54:27.425Z,532.30
2022-11-24T01:55:27.443Z,539.70
2022-11-24T01:56:27.428Z,445.60
2022-11-24T01:57:27.411Z,487.50
2022-11-24T01:58:27.396Z,422.30
2022-11-24T01:59:27.357Z,513.70
2022-11-24T02:00:27.362Z,536.40
2022-11-24T02:01:27.408Z,467.00
2022-11-24T02:02:27.405Z,455.50
2022-11-24T02:03:27.315Z,463.90
2022-11-24T02:04:27.349Z,573.60
2022-11-24T02:05:27.294Z,534.20
2022-11-24T02:06:27.267Z,492.90
2022-11-24T02:07:27.357Z,498.40
2022-11-24T02:08:27.297Z,577.50
2022-11-24T02:09:27.265Z,581.40
2022-11-24T02:10:27.251Z,515.40
2022-11-24T02:11:27.224Z,526.00
2022-11-24T02:12:27.214Z,603.00
2022-11-24T02:13:27.175Z,665.90
2022-11-24T02:14:27.197Z,672.00
2022-11-24T02:15:27.180Z,700.60
2022-11-24T02:16:27.143Z,642.70
2022-11-24T02:17:27.165Z,614.20
2022-11-24T02:18:27.130Z,468.90
2022-11-24T02:19:27.149Z,536.10
2022-11-24T02:20:27.087Z,583.30
2022-11-24T02:21:27.092Z,615.10
2022-11-24T02:22:27.085Z,656.60
2022-11-24T02:23:27.082Z,541.00
2022-11-24T02:24:27.060Z,571.10
2022-11-24T02:25:27.038Z,597.50
2022-11-24T02:26:27.000Z,491.90
2022-11-24T02:27:27.034Z,510.90
2022-11-24T02:28:27.024Z,569.20
2022-11-24T02:29:26.996Z,572.00
2022-11-24T02:30:27.040Z,585.30
2022-11-24T02:31:27.054Z,510.40
2022-11-24T02:32:26.938Z,485.50
2022-11-24T02:33:26.924Z,525.00
2022-11-24T02:34:26.937Z,455.50
2022-11-24T02:35:26.928Z,459.10
2022-11-24T02:36:26.904Z,511.90
2022-11-24T02:37:26.886Z,540.00
2022-11-24T02:38:26.861Z,625.60
2022-11-24T02:39:26.866Z,523.60
2022-11-24T02:40:26.868Z,615.50
2022-11-24T02:41:26.878Z,519.50
2022-11-24T02:42:26.856Z,550.70
2022-11-24T02:43:26.819Z,419.10
2022-11-24T02:44:26.784Z,467.20
2022-11-24T02:45:26.803Z,536.60
2022-11-24T02:46:26.858Z,508.50
2022-11-24T02:47:26.765Z,493.30
2022-11-24T02:48:26.791Z,570.60
2022-11-24T02:49:26.728Z,530.50
2022-11-24T02:50:26.736Z,626.50
2022-11-24T02:51:26.739Z,649.70
2022-11-24T02:52:26.704Z,418.00
2022-11-24T02:53:26.714Z,500.50
2022-11-24T02:54:26.735Z,435.20
2022-11-24T02:55:26.662Z,482.60
2022-11-24T02:56:26.691Z,560.60
2022-11-24T02:57:26.711Z,527.20
2022-11-24T02:58:26.712Z,554.80
2022-11-24T02:59:26.672Z,480.80
2022-11-24T03:00:26.640Z,446.80
2022-11-24T03:01:26.636Z,479.90
2022-11-24T03:02:26.637Z,514.50
2022-11-24T03:03:26.616Z,559.20
2022-11-24T03:04:26.578Z,480.70
2022-11-24T03:05:26.544Z,375.40
2022-11-24T03:06:26.562Z,455.80
2022-11-24T03:07:26.579Z,439.40
2022-11-24T03:08:26.504Z,503.30
2022-11-24T03:09:26.508Z,453.90
2022-11-24T03:10:26.500Z,385.00
2022-11-24T03:11:26.454Z,408.70
2022-11-24T03:12:26.428Z,417.90
2022-11-24T03:13:26.438Z,474.30
2022-11-24T03:14:26.414Z,515.70
2022-11-24T03:15:26.449Z,394.80
2022-11-24T03:16:26.445Z,370.50
2022-11-24T03:17:26.372Z,400.70
2022-11-24T03:18:26.372Z,462.60
2022-11-24T03:19:26.348Z,395.70
2022-11-24T03:20:26.347Z,419.40
2022-11-24T03:21:26.327Z,423.50
2022-11-24T03:22:26.312Z,417.90
2022-11-24T03:23:26.303Z,513.80
2022-11-24T03:24:26.296Z,557.10
2022-11-24T03:25:26.291Z,462.10
2022-11-24T03:26:26.265Z,429.60
2022-11-24T03:27:26.259Z,505.50
2022-11-24T03:28:26.237Z,449.20
2022-11-24T03:29:26.213Z,466.90
2022-11-24T03:30:26.244Z,428.20
2022-11-24T03:31:26.275Z,506.70
2022-11-24T03:32:26.163Z,537.80
2022-11-24T03:33:26.191Z,523.10
2022-11-24T03:34:26.168Z,496.90
2022-11-24T03:35:26.195Z,520.90
2022-11-24T03:36:26.139Z,429.10
2022-11-24T03:37:26.155Z,483.10
2022-11-24T03:38:26.120Z,533.00
2022-11-24T03:39:26.109Z,550.30
2022-11-24T03:40:26.090Z,578.30
2022-11-24T03:41:26.061Z,596.20
2022-11-24T03:42:26.046Z,478.80
2022-11-24T03:43:26.064Z,472.30
2022-11-24T03:44:26.044Z,531.20
2022-11-24T03:46:26.067Z,548.40
2022-11-24T03:47:26.062Z,576.90
2022-11-24T03:48:26.035Z,542.30
2022-11-24T03:49:25.963Z,555.10
2022-11-24T03:50:25.951Z,632.50
2022-11-24T03:51:25.941Z,445.80
2022-11-24T03:52:25.964Z,504.70
2022-11-24T03:53:25.931Z,461.60
2022-11-24T03:54:25.899Z,503.40
2022-11-24T03:55:25.951Z,457.10
2022-11-24T03:56:25.890Z,555.90
2022-11-24T03:57:25.888Z,499.60
2022-11-24T03:58:25.852Z,542.70
2022-11-24T03:59:25.853Z,453.80
2022-11-24T04:00:25.833Z,449.10
2022-11-24T04:01:25.817Z,568.10
2022-11-24T04:02:25.870Z,467.70
2022-11-24T04:03:25.802Z,487.20
2022-11-24T04:04:25.824Z,440.30
2022-11-24T04:05:25.809Z,546.60
2022-11-24T04:06:25.779Z,618.10
2022-11-24T04:07:25.791Z,562.40
2022-11-24T04:08:25.713Z,399.40
2022-11-24T04:09:25.723Z,415.80
2022-11-24T04:10:25.704Z,474.60
2022-11-24T04:11:25.709Z,420.50
2022-11-24T04:12:25.685Z,520.10
2022-11-24T04:13:25.665Z,580.50
2022-11-24T04:14:25.678Z,460.60
2022-11-24T04:15:25.628Z,491.30
2022-11-24T04:16:25.665Z,579.50
2022-11-24T04:17:25.630Z,522.60
2022-11-24T04:18:25.717Z,515.50
2022-11-24T04:19:25.592Z,631.00
2022-11-24T04:20:25.598Z,594.60
2022-11-24T04:21:25.606Z,597.50
2022-11-24T04:22:25.597Z,464.20
2022-11-24T04:23:25.550Z,405.10
2022-11-24T04:24:25.542Z,520.50
2022-11-24T04:25:25.504Z,471.70
2022-11-24T04:26:25.560Z,396.70
2022-11-24T04:27:25.504Z,463.90
2022-11-24T04:28:25.471Z,389.50
2022-11-24T04:29:25.479Z,464.40
2022-11-24T04:30:25.454Z,433.10
2022-11-24T04:31:25.542Z,489.20
2022-11-24T04:32:25.520Z,336.90
2022-11-24T04:33:25.411Z,454.60
2022-11-24T04:34:25.423Z,428.70
2022-11-24T04:35:25.370Z,431.80
2022-11-24T04:36:25.363Z,420.90
2022-11-24T04:37:25.355Z,348.80
2022-11-24T04:39:20.001Z,376.00
2022-11-24T04:39:30.738Z,345.70
2022-11-24T04:40:25.321Z,453.20
2022-11-24T04:41:25.407Z,504.40
2022-11-24T04:42:25.328Z,379.80
2022-11-24T04:43:25.287Z,304.40
2022-11-24T04:44:25.280Z,308.10
2022-11-24T04:45:25.276Z,381.90
2022-11-24T04:46:25.330Z,412.50
2022-11-24T04:47:25.229Z,389.90
2022-11-24T04:48:25.242Z,412.90
2022-11-24T04:49:25.219Z,386.80
2022-11-24T04:50:25.255Z,445.70
2022-11-24T04:51:25.194Z,528.10
2022-11-24T04:52:25.162Z,456.70
2022-11-24T04:53:25.171Z,422.70
2022-11-24T04:54:25.137Z,599.80
2022-11-24T04:55:25.144Z,452.20
2022-11-24T04:56:25.154Z,517.00
2022-11-24T04:57:25.108Z,477.50
2022-11-24T04:58:25.116Z,475.10
2022-11-24T04:59:25.085Z,508.00
2022-11-24T05:00:25.129Z,495.30
2022-11-24T05:01:25.073Z,495.90
2022-11-24T05:02:25.061Z,472.80
2022-11-24T05:03:25.048Z,496.80
2022-11-24T05:04:25.129Z,366.80
2022-11-24T05:05:25.025Z,454.30
2022-11-24T05:06:24.993Z,469.50
2022-11-24T05:07:24.982Z,391.00
2022-11-24T05:08:24.995Z,503.20
2022-11-24T05:09:36.938Z,436.90
2022-11-24T05:10:24.930Z,491.60
2022-11-24T05:11:24.920Z,441.40
2022-11-24T05:12:24.895Z,434.50
2022-11-24T05:13:24.895Z,373.30
2022-11-24T05:14:24.932Z,395.00
2022-11-24T05:15:24.853Z,376.20
2022-11-24T05:16:24.882Z,359.50
2022-11-24T05:17:24.856Z,374.20
2022-11-24T05:18:24.823Z,392.80
2022-11-24T05:19:28.486Z,405.60
2022-11-24T05:20:24.800Z,415.70
2022-11-24T05:21:24.788Z,404.00
2022-11-24T05:22:24.784Z,504.70
2022-11-24T05:23:24.774Z,458.40
2022-11-24T05:24:24.750Z,439.50
2022-11-24T05:25:24.773Z,486.60
2022-11-24T05:26:24.739Z,354.50
2022-11-24T05:27:24.729Z,378.30
2022-11-24T05:28:24.732Z,425.70
2022-11-24T05:29:24.673Z,423.10
2022-11-24T05:30:24.667Z,386.80
2022-11-24T05:31:24.747Z,395.10
2022-11-24T05:32:24.634Z,420.00
2022-11-24T05:33:24.635Z,430.20
2022-11-24T05:34:24.658Z,465.60
2022-11-24T05:35:24.596Z,370.70
2022-11-24T05:36:24.609Z,340.80
2022-11-24T05:37:24.585Z,398.20
2022-11-24T05:38:24.615Z,391.50
2022-11-24T05:39:24.547Z,427.90
2022-11-24T05:40:24.541Z,368.60
2022-11-24T05:41:24.523Z,415.80
2022-11-24T05:42:24.530Z,352.10
2022-11-24T05:43:24.504Z,322.20
2022-11-24T05:44:24.495Z,373.00
2022-11-24T05:45:24.465Z,319.50
2022-11-24T05:46:24.495Z,283.60
2022-11-24T05:47:24.436Z,256.20
2022-11-24T05:48:24.438Z,321.40
2022-11-24T05:49:24.453Z,362.30
2022-11-24T05:50:24.436Z,345.10
2022-11-24T05:51:24.453Z,337.30
2022-11-24T05:52:24.393Z,343.80
2022-11-24T05:53:24.363Z,418.10
2022-11-24T05:54:24.357Z,403.70
2022-11-24T05:55:24.362Z,382.60
2022-11-24T05:56:24.339Z,311.60
2022-11-24T05:57:24.333Z,328.90
2022-11-24T05:58:24.347Z,333.60
2022-11-24T05:59:24.308Z,370.30
2022-11-24T06:00:24.270Z,367.70
2022-11-24T06:01:24.303Z,386.90
2022-11-24T06:02:24.371Z,324.20
2022-11-24T06:03:24.302Z,355.90
2022-11-24T06:04:24.249Z,349.40
2022-11-24T06:05:24.208Z,346.30
2022-11-24T06:06:24.189Z,414.00
2022-11-24T06:07:24.287Z,399.90
2022-11-24T06:08:29.553Z,364.50
2022-11-24T06:09:24.177Z,376.90
2022-11-24T06:10:24.160Z,400.30
2022-11-24T06:11:24.127Z,372.90
2022-11-24T06:12:24.140Z,356.80
2022-11-24T06:13:24.198Z,337.30
2022-11-24T06:14:24.100Z,342.70
2022-11-24T06:15:24.079Z,339.00
2022-11-24T06:16:24.130Z,342.10
2022-11-24T06:17:24.056Z,329.40
2022-11-24T06:18:24.061Z,420.40
2022-11-24T06:19:24.031Z,440.10
2022-11-24T06:20:28.279Z,297.60
2022-11-24T06:21:24.023Z,390.90
2022-11-24T06:22:23.994Z,336.60
2022-11-24T06:23:24.012Z,388.30
2022-11-24T06:24:23.980Z,291.20
2022-11-24T06:25:23.974Z,301.90
2022-11-24T06:26:23.970Z,340.00
2022-11-24T06:27:23.948Z,387.40
2022-11-24T06:28:23.938Z,396.00
2022-11-24T06:29:23.941Z,334.60
2022-11-24T06:30:23.922Z,321.70
2022-11-24T06:31:23.937Z,322.90
2022-11-24T06:32:23.892Z,317.50
2022-11-24T06:33:23.880Z,269.20
2022-11-24T06:34:23.892Z,261.70
2022-11-24T06:35:23.848Z,349.30
2022-11-24T06:36:23.863Z,313.00
2022-11-24T06:37:23.806Z,414.70
2022-11-24T06:38:24.482Z,348.00
2022-11-24T06:39:23.780Z,378.50
2022-11-24T06:40:23.785Z,397.60
2022-11-24T06:41:23.833Z,398.30
2022-11-24T06:42:23.750Z,407.50
2022-11-24T06:43:23.758Z,378.40
2022-11-24T06:44:23.780Z,327.90
2022-11-24T06:45:23.753Z,348.50
2022-11-24T06:46:23.844Z,342.30
2022-11-24T06:47:23.804Z,316.40
2022-11-24T06:48:23.704Z,283.40
2022-11-24T06:49:23.694Z,285.80
2022-11-24T06:50:25.218Z,272.60
2022-11-24T06:51:23.660Z,293.20
2022-11-24T06:52:23.677Z,349.20
2022-11-24T06:53:23.716Z,360.40
2022-11-24T06:54:23.675Z,315.80
2022-11-24T06:55:23.596Z,368.60
2022-11-24T06:56:23.652Z,350.80
2022-11-24T06:57:23.589Z,329.60
2022-11-24T06:58:23.563Z,338.00
2022-11-24T06:59:23.550Z,438.00
2022-11-24T07:00:23.532Z,404.00
2022-11-24T07:01:23.636Z,302.90
2022-11-24T07:02:23.479Z,394.60
2022-11-24T07:03:23.530Z,396.50
2022-11-24T07:04:23.484Z,381.90
2022-11-24T07:05:23.521Z,385.10
2022-11-24T07:06:23.456Z,383.30
2022-11-24T07:07:23.504Z,406.60
2022-11-24T07:08:23.408Z,372.20
2022-11-24T07:09:23.392Z,210.10
2022-11-24T07:10:23.380Z,247.10
2022-11-24T07:11:23.372Z,282.50
2022-11-24T07:12:23.364Z,348.00
2022-11-24T07:13:23.331Z,311.10
2022-11-24T07:14:23.340Z,383.20
2022-11-24T07:15:23.313Z,367.50
2022-11-24T07:16:23.343Z,296.70
2022-11-24T07:17:23.302Z,362.20
2022-11-24T07:18:23.326Z,321.00
2022-11-24T07:19:25.220Z,320.00
2022-11-24T07:20:23.295Z,367.50
2022-11-24T07:21:23.294Z,348.60
2022-11-24T07:22:23.466Z,236.50
2022-11-24T07:23:23.258Z,226.90
2022-11-24T07:24:23.281Z,241.40
2022-11-24T07:25:23.209Z,239.00
2022-11-24T07:26:23.294Z,234.30
2022-11-24T07:27:23.255Z,236.10
2022-11-24T07:28:23.202Z,255.10
2022-11-24T07:29:23.260Z,218.50
2022-11-24T07:30:23.175Z,270.00
2022-11-24T07:31:23.238Z,216.70
2022-11-24T07:32:23.354Z,201.80
2022-11-24T07:33:23.205Z,274.00
2022-11-24T07:34:23.175Z,249.60
2022-11-24T07:35:23.080Z,256.70
2022-11-24T07:36:23.167Z,231.80
2022-11-24T07:37:26.758Z,239.90
2022-11-24T07:38:23.186Z,276.20
2022-11-24T07:39:23.087Z,233.20
2022-11-24T07:40:23.059Z,207.60
2022-11-24T07:41:23.011Z,243.20
2022-11-24T07:42:23.112Z,250.00
2022-11-24T07:43:23.104Z,296.50
2022-11-24T07:44:23.804Z,242.90
2022-11-24T07:45:23.038Z,255.40
2022-11-24T07:46:23.291Z,235.40
2022-11-24T07:47:22.991Z,191.40
2022-11-24T07:48:22.886Z,216.50
2022-11-24T07:49:22.897Z,225.30
2022-11-24T07:50:22.889Z,186.00
2022-11-24T07:51:22.996Z,173.00
2022-11-24T07:52:22.856Z,170.20
2022-11-24T07:53:22.856Z,170.90
2022-11-24T07:54:22.819Z,177.30
2022-11-24T07:55:22.814Z,181.20
2022-11-24T07:56:22.790Z,148.60
2022-11-24T07:57:22.797Z,148.60
2022-11-24T07:58:22.797Z,153.00
2022-11-24T07:59:22.813Z,137.90
2022-11-24T08:00:22.817Z,159.70
2022-11-24T08:01:22.764Z,126.90
2022-11-24T08:02:22.762Z,145.70
2022-11-24T08:03:22.812Z,146.00
2022-11-24T08:04:22.733Z,163.70
2022-11-24T08:05:22.727Z,164.20
2022-11-24T08:06:26.157Z,167.40
2022-11-24T08:07:22.776Z,187.60
2022-11-24T08:08:22.681Z,175.40
2022-11-24T08:09:22.646Z,168.40
2022-11-24T08:10:22.814Z,156.70
2022-11-24T08:11:22.654Z,171.80
2022-11-24T08:12:22.601Z,174.80
2022-11-24T08:13:22.624Z,173.90
2022-11-24T08:14:22.620Z,143.60
2022-11-24T08:15:22.621Z,142.80
2022-11-24T08:16:22.583Z,147.40
2022-11-24T08:17:22.523Z,159.10
2022-11-24T08:18:22.538Z,149.60
2022-11-24T08:19:22.507Z,157.90
2022-11-24T08:20:22.499Z,143.30
2022-11-24T08:21:22.640Z,124.40
2022-11-24T08:22:22.525Z,129.30
2022-11-24T08:23:22.488Z,164.90
2022-11-24T08:24:22.520Z,151.00
2022-11-24T08:25:22.486Z,150.30
2022-11-24T08:26:22.440Z,150.80
2022-11-24T08:27:22.445Z,148.20
2022-11-24T08:28:22.407Z,146.00
2022-11-24T08:29:22.427Z,133.80
2022-11-24T08:30:22.420Z,144.70
2022-11-24T08:31:22.423Z,139.00
2022-11-24T08:32:22.681Z,158.90
2022-11-24T08:33:22.377Z,153.00
2022-11-24T08:34:22.583Z,158.60
2022-11-24T08:35:22.282Z,160.40
2022-11-24T08:36:22.313Z,140.40
2022-11-24T08:37:22.305Z,154.50
2022-11-24T08:38:22.336Z,156.90
2022-11-24T08:39:22.247Z,163.30
2022-11-24T08:40:22.263Z,168.00
2022-11-24T08:41:22.250Z,160.70
2022-11-24T08:42:22.279Z,150.60
2022-11-24T08:43:22.180Z,137.70
2022-11-24T08:44:22.192Z,154.00
2022-11-24T08:45:24.687Z,153.00
2022-11-24T08:46:22.233Z,149.60
2022-11-24T08:47:22.178Z,160.50
2022-11-24T08:48:22.141Z,132.20
2022-11-24T08:49:22.293Z,145.50
2022-11-24T08:50:22.091Z,146.90
2022-11-24T08:51:22.075Z,135.20
2022-11-24T08:52:22.071Z,140.70
2022-11-24T08:53:22.078Z,122.90
2022-11-24T08:54:22.077Z,130.90
2022-11-24T08:55:22.058Z,117.80
2022-11-24T08:56:22.040Z,115.30
2022-11-24T08:57:22.137Z,115.30
2022-11-24T08:58:22.010Z,101.60
2022-11-24T08:59:22.043Z,103.40
2022-11-24T09:00:22.134Z,111.30
2022-11-24T09:01:22.015Z,120.10
2022-11-24T09:02:21.964Z,127.80
2022-11-24T09:03:21.956Z,116.40
2022-11-24T09:04:22.016Z,115.00
2022-11-24T09:05:50.233Z,107.40
2022-11-24T09:06:21.926Z,104.90
2022-11-24T09:07:21.935Z,103.60
2022-11-24T09:08:21.853Z,120.90
2022-11-24T09:09:21.848Z,103.40
2022-11-24T09:10:21.887Z,112.00
2022-11-24T09:11:21.856Z,119.90
2022-11-24T09:12:21.845Z,106.10
2022-11-24T09:13:21.809Z,114.00
2022-11-24T09:14:21.807Z,118.40
2022-11-24T09:15:21.755Z,100.70
2022-11-24T09:16:21.828Z,111.20
2022-11-24T09:17:21.732Z,107.50
2022-11-24T09:18:25.173Z,111.90
2022-11-24T09:19:21.713Z,96.90
2022-11-24T09:20:21.791Z,116.40
2022-11-24T09:21:21.695Z,105.10
2022-11-24T09:22:21.666Z,108.10
2022-11-24T09:23:21.654Z,113.30
2022-11-24T09:24:21.660Z,111.80
2022-11-24T09:25:21.636Z,100.70
2022-11-24T09:26:21.657Z,100.30
2022-11-24T09:27:21.623Z,92.70
2022-11-24T09:28:21.609Z,97.50
2022-11-24T09:29:21.589Z,106.30
2022-11-24T09:30:21.666Z,103.30
2022-11-24T09:31:21.651Z,107.80
2022-11-24T09:32:21.564Z,95.60
2022-11-24T09:33:21.532Z,102.10
2022-11-24T09:34:21.557Z,87.00
2022-11-24T09:35:21.502Z,90.90
2022-11-24T09:36:21.545Z,84.60
2022-11-24T09:37:21.497Z,94.80
2022-11-24T09:38:21.524Z,92.00
2022-11-24T09:39:21.445Z,90.20
2022-11-24T09:40:21.546Z,82.90
2022-11-24T09:41:21.412Z,87.10
2022-11-24T09:42:21.449Z,84.30
2022-11-24T09:43:21.416Z,83.40
2022-11-24T09:44:21.399Z,87.20
2022-11-24T09:45:35.653Z,84.30
2022-11-24T09:46:21.411Z,83.40
2022-11-24T09:47:21.369Z,81.50
2022-11-24T09:48:21.346Z,77.10
2022-11-24T09:49:21.317Z,74.20
2022-11-24T09:50:21.313Z,72.60
2022-11-24T09:51:21.302Z,74.90
2022-11-24T09:52:21.269Z,69.60
2022-11-24T09:53:21.278Z,76.10
2022-11-24T09:54:21.268Z,63.60
2022-11-24T09:55:21.227Z,69.60
2022-11-24T09:56:21.227Z,75.50
2022-11-24T09:57:21.226Z,76.10
2022-11-24T09:58:21.223Z,75.50
2022-11-24T09:59:21.201Z,77.90
2022-11-24T10:00:21.214Z,73.10
2022-11-24T10:01:21.256Z,68.20
2022-11-24T10:02:21.143Z,61.10
2022-11-24T10:03:21.129Z,64.80
2022-11-24T10:04:21.148Z,77.40
2022-11-24T10:05:21.130Z,72.30
2022-11-24T10:06:21.094Z,64.50
2022-11-24T10:07:21.168Z,59.40
2022-11-24T10:08:21.079Z,54.50
2022-11-24T10:09:21.055Z,59.10
2022-11-24T10:10:24.738Z,63.80
2022-11-24T10:11:21.061Z,51.00
2022-11-24T10:12:21.025Z,53.70
2022-11-24T10:13:20.988Z,54.50
2022-11-24T10:14:21.009Z,56.60
2022-11-24T10:15:20.990Z,52.50
2022-11-24T10:16:21.085Z,54.90
2022-11-24T10:17:20.939Z,60.90
2022-11-24T10:18:20.941Z,51.80
2022-11-24T10:19:20.927Z,52.60
2022-11-24T10:20:20.970Z,52.60
2022-11-24T10:21:20.910Z,53.50
2022-11-24T10:22:20.892Z,52.10
2022-11-24T10:23:20.881Z,52.10
2022-11-24T10:24:20.871Z,53.80
2022-11-24T10:25:20.844Z,49.60
2022-11-24T10:26:20.877Z,46.40
2022-11-24T10:27:20.823Z,51.40
2022-11-24T10:28:20.821Z,51.60
2022-11-24T10:29:20.788Z,44.90
2022-11-24T10:30:20.789Z,46.90
2022-11-24T10:31:20.830Z,43.50
2022-11-24T10:32:20.801Z,43.10
2022-11-24T10:33:24.289Z,43.20
2022-11-24T10:34:20.759Z,47.80
2022-11-24T10:35:20.721Z,43.90
2022-11-24T10:36:20.716Z,49.30
2022-11-24T10:37:20.696Z,44.50
2022-11-24T10:38:20.700Z,41.60
2022-11-24T10:39:20.675Z,37.50
2022-11-24T10:40:48.663Z,36.30
2022-11-24T10:41:20.653Z,42.60
2022-11-24T10:42:20.616Z,38.60
2022-11-24T10:43:20.637Z,39.00
2022-11-24T10:44:20.614Z,40.30
2022-11-24T10:45:20.583Z,38.70
2022-11-24T10:46:20.633Z,43.80
2022-11-24T10:47:20.555Z,42.60
2022-11-24T10:48:20.577Z,47.60
2022-11-24T10:49:20.694Z,43.90
2022-11-24T10:50:20.755Z,40.80
2022-11-24T10:51:20.525Z,43.20
2022-11-24T10:52:20.503Z,40.20
2022-11-24T10:53:20.524Z,43.90
2022-11-24T10:54:20.481Z,55.90
2022-11-24T10:55:21.680Z,43.60
2022-11-24T10:56:20.470Z,47.80
2022-11-24T10:57:20.431Z,39.40
2022-11-24T10:58:20.417Z,39.90
2022-11-24T10:59:20.455Z,49.00
2022-11-24T11:00:20.443Z,43.20
2022-11-24T11:01:20.466Z,48.10
2022-11-24T11:02:20.479Z,43.80
2022-11-24T11:03:20.762Z,39.40
2022-11-24T11:04:20.407Z,39.80
2022-11-24T11:05:20.375Z,39.50
2022-11-24T11:06:20.347Z,48.20
2022-11-24T11:07:20.432Z,43.80
2022-11-24T11:08:20.327Z,39.90
2022-11-24T11:09:20.365Z,42.50
2022-11-24T11:10:20.269Z,46.80
2022-11-24T11:11:20.328Z,42.30
2022-11-24T11:12:42.922Z,40.40
2022-11-24T11:13:20.261Z,44.20
2022-11-24T11:14:20.253Z,38.60
2022-11-24T11:15:20.210Z,44.40
2022-11-24T11:16:20.270Z,43.50
2022-11-24T11:17:20.171Z,45.10
2022-11-24T11:18:20.184Z,42.70
2022-11-24T11:19:47.225Z,42.50
2022-11-24T11:20:20.143Z,47.60
2022-11-24T11:21:20.118Z,44.70
2022-11-24T11:22:20.093Z,45.60
2022-11-24T11:23:20.080Z,46.10
2022-11-24T11:24:20.082Z,54.40
2022-11-24T11:25:20.086Z,44.10
2022-11-24T11:26:20.096Z,44.10
2022-11-24T11:27:20.039Z,49.30
2022-11-24T11:28:20.016Z,42.20
2022-11-24T11:31:21.835Z,40.30
2022-11-24T11:34:35.156Z,39.30
2022-11-24T11:35:19.961Z,39.10
2022-11-24T11:36:19.960Z,33.10
2022-11-24T11:37:19.946Z,35.60
2022-11-24T11:38:19.950Z,38.10
2022-11-24T11:39:19.904Z,37.70
2022-11-24T11:40:19.947Z,34.00
2022-11-24T11:41:19.884Z,37.10
2022-11-24T11:42:45.443Z,37.50
2022-11-24T11:43:19.859Z,39.50
2022-11-24T11:44:19.857Z,39.90
2022-11-24T11:45:19.817Z,41.90
2022-11-24T11:46:19.887Z,39.70
2022-11-24T11:47:19.812Z,41.70
2022-11-24T11:48:19.801Z,42.00
2022-11-24T11:49:19.732Z,43.40
2022-11-24T11:50:19.805Z,38.80
2022-11-24T11:51:24.247Z,34.90
2022-11-24T11:52:19.843Z,35.10
2022-11-24T11:53:19.683Z,36.50
2022-11-24T11:54:19.728Z,36.30
2022-11-24T11:55:19.706Z,36.10
2022-11-24T11:56:19.718Z,39.90
2022-11-24T11:57:19.667Z,38.20
2022-11-24T11:58:19.646Z,37.90
2022-11-24T11:59:19.613Z,37.20
2022-11-24T12:00:19.617Z,37.20
2022-11-24T12:01:19.618Z,36.30
2022-11-24T12:02:19.774Z,37.60
2022-11-24T12:03:19.692Z,34.60
2022-11-24T12:04:19.645Z,36.60
2022-11-24T12:05:19.583Z,36.60
2022-11-24T12:06:19.595Z,37.00
2022-11-24T12:07:19.648Z,38.30
2022-11-24T12:08:21.522Z,38.90
2022-11-24T12:09:20.956Z,40.60
2022-11-24T12:10:19.474Z,39.00
2022-11-24T12:11:19.482Z,39.50
2022-11-24T12:12:19.457Z,42.60
2022-11-24T12:13:19.433Z,39.00
2022-11-24T12:14:19.453Z,36.20
2022-11-24T12:15:19.440Z,39.10
2022-11-24T12:16:19.458Z,38.20
2022-11-24T12:17:19.401Z,36.80
2022-11-24T12:18:48.380Z,35.80
2022-11-24T12:19:19.370Z,33.70
2022-11-24T12:20:19.373Z,34.90
2022-11-24T12:21:24.804Z,37.00
2022-11-24T12:22:19.361Z,34.60
2022-11-24T12:23:19.551Z,34.10
2022-11-24T12:24:19.445Z,33.20
2022-11-24T12:25:19.325Z,36.90
2022-11-24T12:26:19.323Z,33.00
2022-11-24T12:27:22.924Z,35.90
2022-11-24T12:28:19.296Z,32.30
2022-11-24T12:29:19.245Z,35.70
2022-11-24T12:30:19.280Z,36.70
2022-11-24T12:31:19.276Z,36.30
2022-11-24T12:32:20.230Z,38.90
2022-11-24T12:33:19.199Z,35.10
2022-11-24T12:34:19.207Z,35.30
2022-11-24T12:35:19.177Z,38.10
2022-11-24T12:36:19.226Z,35.30
2022-11-24T12:37:19.206Z,34.80
2022-11-24T12:38:19.174Z,40.60
2022-11-24T12:39:19.166Z,35.00